sensor_id;sensor_type;location;lat;lon;timestamp;pressure;altitude;pressure_sealevel;temperature;humidity
11678;BME280;5895;41.950;24.372;2023-02-20T00:00:24;86911.44;;;6.43;57.83
11678;BME280;5895;41.950;24.372;2023-02-20T00:02:51;86905.72;;;6.41;56.23
11678;BME280;5895;41.950;24.372;2023-02-20T00:05:19;86923.53;;;6.43;56.98
11678;BME280;5895;41.950;24.372;2023-02-20T00:07:46;86912.66;;;6.41;56.02
11678;BME280;5895;41.950;24.372;2023-02-20T00:10:14;86921.34;;;6.40;56.40
11678;BME280;5895;41.950;24.372;2023-02-20T00:12:42;86923.34;;;6.38;56.95
11678;BME280;5895;41.950;24.372;2023-02-20T00:15:13;86919.78;;;6.39;58.54
11678;BME280;5895;41.950;24.372;2023-02-20T00:17:41;86927.72;;;6.37;57.17
11678;BME280;5895;41.950;24.372;2023-02-20T00:20:10;86930.88;;;6.39;56.26
11678;BME280;5895;41.950;24.372;2023-02-20T00:22:37;86931.88;;;6.38;56.98
11678;BME280;5895;41.950;24.372;2023-02-20T00:25:04;86936.22;;;6.38;56.76
11678;BME280;5895;41.950;24.372;2023-02-20T00:27:32;86925.94;;;6.38;56.47
11678;BME280;5895;41.950;24.372;2023-02-20T00:29:59;86921.78;;;6.36;56.31
11678;BME280;5895;41.950;24.372;2023-02-20T00:32:27;86920.19;;;6.35;57.35
11678;BME280;5895;41.950;24.372;2023-02-20T00:34:54;86928.91;;;6.34;55.83
11678;BME280;5895;41.950;24.372;2023-02-20T00:37:21;86930.50;;;6.35;55.90
11678;BME280;5895;41.950;24.372;2023-02-20T00:39:49;86935.03;;;6.33;55.98
11678;BME280;5895;41.950;24.372;2023-02-20T00:42:16;86932.47;;;6.33;56.49
11678;BME280;5895;41.950;24.372;2023-02-20T00:44:43;86928.72;;;6.29;56.19
11678;BME280;5895;41.950;24.372;2023-02-20T00:47:10;86924.53;;;6.28;56.23
11678;BME280;5895;41.950;24.372;2023-02-20T00:49:39;86931.69;;;6.26;56.97
11678;BME280;5895;41.950;24.372;2023-02-20T00:52:06;86925.16;;;6.24;56.20
11678;BME280;5895;41.950;24.372;2023-02-20T00:54:33;86921.19;;;6.21;56.35
11678;BME280;5895;41.950;24.372;2023-02-20T00:57:01;86926.13;;;6.16;56.89
11678;BME280;5895;41.950;24.372;2023-02-20T00:59:28;86933.28;;;6.14;57.20
11678;BME280;5895;41.950;24.372;2023-02-20T01:01:55;86933.66;;;6.11;56.77
11678;BME280;5895;41.950;24.372;2023-02-20T01:04:22;86934.06;;;6.08;57.12
11678;BME280;5895;41.950;24.372;2023-02-20T01:06:51;86930.72;;;6.07;57.81
11678;BME280;5895;41.950;24.372;2023-02-20T01:09:18;86936.25;;;6.04;57.02
11678;BME280;5895;41.950;24.372;2023-02-20T01:11:45;86936.81;;;6.00;57.43
11678;BME280;5895;41.950;24.372;2023-02-20T01:14:12;86931.69;;;6.00;56.99
11678;BME280;5895;41.950;24.372;2023-02-20T01:16:43;86919.00;;;5.98;59.09
11678;BME280;5895;41.950;24.372;2023-02-20T01:19:10;86921.00;;;5.96;57.32
11678;BME280;5895;41.950;24.372;2023-02-20T01:21:38;86925.75;;;5.93;57.08
11678;BME280;5895;41.950;24.372;2023-02-20T01:24:07;86919.81;;;5.92;57.38
11678;BME280;5895;41.950;24.372;2023-02-20T01:26:34;86917.41;;;5.91;57.16
11678;BME280;5895;41.950;24.372;2023-02-20T01:29:02;86926.13;;;5.90;56.95
11678;BME280;5895;41.950;24.372;2023-02-20T01:31:30;86921.94;;;5.89;57.01
11678;BME280;5895;41.950;24.372;2023-02-20T01:33:57;86925.50;;;5.88;57.13
11678;BME280;5895;41.950;24.372;2023-02-20T01:36:24;86924.50;;;5.89;57.02
11678;BME280;5895;41.950;24.372;2023-02-20T01:38:55;86926.13;;;5.90;56.81
11678;BME280;5895;41.950;24.372;2023-02-20T01:41:24;86921.94;;;5.89;57.03
11678;BME280;5895;41.950;24.372;2023-02-20T01:43:51;86933.22;;;5.88;56.59
11678;BME280;5895;41.950;24.372;2023-02-20T01:49:29;86919.16;;;5.83;57.96
11678;BME280;5895;41.950;24.372;2023-02-20T01:52:01;86915.00;;;5.82;57.67
11678;BME280;5895;41.950;24.372;2023-02-20T01:54:30;86915.22;;;5.81;56.87
11678;BME280;5895;41.950;24.372;2023-02-20T01:57:00;86913.63;;;5.80;58.22
11678;BME280;5895;41.950;24.372;2023-02-20T01:59:31;86915.78;;;5.76;57.48
11678;BME280;5895;41.950;24.372;2023-02-20T02:02:00;86914.41;;;5.74;57.04
11678;BME280;5895;41.950;24.372;2023-02-20T02:04:28;86915.00;;;5.69;57.41
11678;BME280;5895;41.950;24.372;2023-02-20T02:06:56;86920.16;;;5.69;57.66
11678;BME280;5895;41.950;24.372;2023-02-20T02:09:31;86910.22;;;5.66;59.13
11678;BME280;5895;41.950;24.372;2023-02-20T02:12:01;86916.97;;;5.61;59.20
11678;BME280;5895;41.950;24.372;2023-02-20T02:14:28;86914.19;;;5.55;58.78
11678;BME280;5895;41.950;24.372;2023-02-20T02:17:06;86927.25;;;5.54;62.70
11678;BME280;5895;41.950;24.372;2023-02-20T02:23:07;86936.16;;;5.45;62.38
11678;BME280;5895;41.950;24.372;2023-02-20T02:25:46;86938.09;;;5.43;59.85
11678;BME280;5895;41.950;24.372;2023-02-20T02:28:38;86944.44;;;5.40;63.95
11678;BME280;5895;41.950;24.372;2023-02-20T02:37:09;86946.19;;;5.26;63.62
11678;BME280;5895;41.950;24.372;2023-02-20T02:39:43;86959.44;;;5.23;61.88
11678;BME280;5895;41.950;24.372;2023-02-20T02:42:17;86950.13;;;5.22;62.22
11678;BME280;5895;41.950;24.372;2023-02-20T02:44:51;86968.31;;;5.21;61.75
11678;BME280;5895;41.950;24.372;2023-02-20T02:47:26;86973.06;;;5.17;61.99
11678;BME280;5895;41.950;24.372;2023-02-20T02:49:59;86976.00;;;5.14;61.58
11678;BME280;5895;41.950;24.372;2023-02-20T02:52:30;86968.69;;;5.11;61.22
11678;BME280;5895;41.950;24.372;2023-02-20T02:55:12;86970.66;;;5.09;60.42
11678;BME280;5895;41.950;24.372;2023-02-20T02:57:39;86967.84;;;5.04;60.33
11678;BME280;5895;41.950;24.372;2023-02-20T03:00:09;86972.22;;;5.03;61.85
11678;BME280;5895;41.950;24.372;2023-02-20T03:02:42;86983.69;;;5.01;62.13
11678;BME280;5895;41.950;24.372;2023-02-20T03:05:13;86988.00;;;4.94;63.61
11678;BME280;5895;41.950;24.372;2023-02-20T03:07:44;86995.88;;;4.92;62.21
11678;BME280;5895;41.950;24.372;2023-02-20T03:10:17;86997.06;;;4.90;62.24
11678;BME280;5895;41.950;24.372;2023-02-20T03:12:48;86989.13;;;4.85;62.29
11678;BME280;5895;41.950;24.372;2023-02-20T03:15:22;86987.91;;;4.81;64.13
11678;BME280;5895;41.950;24.372;2023-02-20T03:18:08;86979.38;;;4.73;65.45
11678;BME280;5895;41.950;24.372;2023-02-20T03:20:38;86995.00;;;4.72;61.94
11678;BME280;5895;41.950;24.372;2023-02-20T03:23:13;86993.41;;;4.71;65.05
11678;BME280;5895;41.950;24.372;2023-02-20T03:25:47;86980.16;;;4.67;63.01
11678;BME280;5895;41.950;24.372;2023-02-20T03:28:19;86986.44;;;4.65;61.76
11678;BME280;5895;41.950;24.372;2023-02-20T03:30:51;86980.34;;;4.66;62.42
11678;BME280;5895;41.950;24.372;2023-02-20T03:33:24;86982.91;;;4.66;61.95
11678;BME280;5895;41.950;24.372;2023-02-20T03:36:15;86979.53;;;4.65;62.88
11678;BME280;5895;41.950;24.372;2023-02-20T03:39:09;86984.66;;;4.65;62.69
11678;BME280;5895;41.950;24.372;2023-02-20T03:41:56;86993.34;;;4.64;61.00
11678;BME280;5895;41.950;24.372;2023-02-20T03:44:42;86993.75;;;4.61;61.13
11678;BME280;5895;41.950;24.372;2023-02-20T03:47:13;87002.44;;;4.60;62.52
11678;BME280;5895;41.950;24.372;2023-02-20T03:49:42;86988.63;;;4.61;60.29
11678;BME280;5895;41.950;24.372;2023-02-20T03:52:11;87001.25;;;4.63;59.70
11678;BME280;5895;41.950;24.372;2023-02-20T03:54:40;87015.50;;;4.65;60.37
11678;BME280;5895;41.950;24.372;2023-02-20T03:57:10;87013.94;;;4.71;59.87
11678;BME280;5895;41.950;24.372;2023-02-20T03:59:42;87021.50;;;4.72;60.31
11678;BME280;5895;41.950;24.372;2023-02-20T04:02:17;87022.69;;;4.76;60.69
11678;BME280;5895;41.950;24.372;2023-02-20T04:04:48;87013.22;;;4.77;59.17
11678;BME280;5895;41.950;24.372;2023-02-20T04:07:21;87003.72;;;4.77;59.99
11678;BME280;5895;41.950;24.372;2023-02-20T04:09:53;87016.59;;;4.77;60.08
11678;BME280;5895;41.950;24.372;2023-02-20T04:12:25;87014.00;;;4.77;58.65
11678;BME280;5895;41.950;24.372;2023-02-20T04:14:55;87015.59;;;4.78;60.05
11678;BME280;5895;41.950;24.372;2023-02-20T04:17:26;87021.09;;;4.75;58.84
11678;BME280;5895;41.950;24.372;2023-02-20T04:19:55;87014.38;;;4.74;58.08
11678;BME280;5895;41.950;24.372;2023-02-20T04:22:25;87019.72;;;4.73;59.48
11678;BME280;5895;41.950;24.372;2023-02-20T04:24:57;87025.06;;;4.71;59.49
11678;BME280;5895;41.950;24.372;2023-02-20T04:27:26;87028.56;;;4.70;58.43
11678;BME280;5895;41.950;24.372;2023-02-20T04:29:53;87024.19;;;4.64;59.00
11678;BME280;5895;41.950;24.372;2023-02-20T04:32:21;87031.31;;;4.62;58.74
11678;BME280;5895;41.950;24.372;2023-02-20T04:34:48;87036.66;;;4.61;58.45
11678;BME280;5895;41.950;24.372;2023-02-20T04:37:19;87038.59;;;4.59;59.80
11678;BME280;5895;41.950;24.372;2023-02-20T04:39:46;87027.91;;;4.55;58.89
11678;BME280;5895;41.950;24.372;2023-02-20T04:42:15;87022.16;;;4.53;59.02
11678;BME280;5895;41.950;24.372;2023-02-20T04:44:42;87016.59;;;4.49;59.04
11678;BME280;5895;41.950;24.372;2023-02-20T04:47:13;87015.81;;;4.49;58.68
11678;BME280;5895;41.950;24.372;2023-02-20T04:49:40;87016.97;;;4.46;58.44
11678;BME280;5895;41.950;24.372;2023-02-20T04:52:07;87020.09;;;4.42;58.38
11678;BME280;5895;41.950;24.372;2023-02-20T04:54:34;87015.34;;;4.39;57.98
11678;BME280;5895;41.950;24.372;2023-02-20T04:57:01;87008.63;;;4.38;57.55
11678;BME280;5895;41.950;24.372;2023-02-20T04:59:30;87008.78;;;4.36;58.00
11678;BME280;5895;41.950;24.372;2023-02-20T05:01:57;87027.94;;;4.34;57.70
11678;BME280;5895;41.950;24.372;2023-02-20T05:04:26;87022.03;;;4.33;57.35
11678;BME280;5895;41.950;24.372;2023-02-20T05:06:54;87029.09;;;4.31;57.27
11678;BME280;5895;41.950;24.372;2023-02-20T05:09:22;87028.31;;;4.31;57.08
11678;BME280;5895;41.950;24.372;2023-02-20T05:11:49;87037.38;;;4.27;57.31
11678;BME280;5895;41.950;24.372;2023-02-20T05:14:17;87042.53;;;4.27;57.00
11678;BME280;5895;41.950;24.372;2023-02-20T05:16:45;87047.66;;;4.27;57.34
11678;BME280;5895;41.950;24.372;2023-02-20T05:19:14;87058.28;;;4.23;57.17
11678;BME280;5895;41.950;24.372;2023-02-20T05:21:41;87061.84;;;4.22;57.07
11678;BME280;5895;41.950;24.372;2023-02-20T05:24:26;87051.75;;;4.21;57.17
11678;BME280;5895;41.950;24.372;2023-02-20T05:26:55;87054.88;;;4.16;56.85
11678;BME280;5895;41.950;24.372;2023-02-20T05:29:22;87064.16;;;4.17;56.71
11678;BME280;5895;41.950;24.372;2023-02-20T05:31:51;87062.19;;;4.19;57.02
11678;BME280;5895;41.950;24.372;2023-02-20T05:34:18;87069.91;;;4.19;57.48
11678;BME280;5895;41.950;24.372;2023-02-20T05:36:47;87069.66;;;4.14;57.43
11678;BME280;5895;41.950;24.372;2023-02-20T05:39:14;87075.75;;;4.13;57.90
11678;BME280;5895;41.950;24.372;2023-02-20T05:41:41;87087.03;;;4.12;57.57
11678;BME280;5895;41.950;24.372;2023-02-20T05:44:08;87091.16;;;4.13;58.03
11678;BME280;5895;41.950;24.372;2023-02-20T05:46:38;87095.91;;;4.10;58.80
11678;BME280;5895;41.950;24.372;2023-02-20T05:49:07;87087.38;;;4.09;58.59
11678;BME280;5895;41.950;24.372;2023-02-20T05:51:35;87090.13;;;4.08;58.52
11678;BME280;5895;41.950;24.372;2023-02-20T05:54:03;87093.69;;;4.07;58.43
11678;BME280;5895;41.950;24.372;2023-02-20T05:56:30;87092.88;;;4.06;58.59
11678;BME280;5895;41.950;24.372;2023-02-20T05:58:58;87086.97;;;4.06;58.51
11678;BME280;5895;41.950;24.372;2023-02-20T06:01:28;87091.31;;;4.05;58.16
11678;BME280;5895;41.950;24.372;2023-02-20T06:03:55;87103.94;;;4.07;58.15
11678;BME280;5895;41.950;24.372;2023-02-20T06:06:23;87118.56;;;4.06;57.07
11678;BME280;5895;41.950;24.372;2023-02-20T06:08:56;87132.00;;;4.08;56.93
11678;BME280;5895;41.950;24.372;2023-02-20T06:11:24;87130.84;;;4.11;56.13
11678;BME280;5895;41.950;24.372;2023-02-20T06:13:51;87135.19;;;4.10;56.33
11678;BME280;5895;41.950;24.372;2023-02-20T06:16:21;87131.47;;;4.13;56.82
11678;BME280;5895;41.950;24.372;2023-02-20T06:18:48;87126.94;;;4.15;55.98
11678;BME280;5895;41.950;24.372;2023-02-20T06:21:15;87139.59;;;4.16;56.32
11678;BME280;5895;41.950;24.372;2023-02-20T06:23:44;87156.59;;;4.17;56.76
11678;BME280;5895;41.950;24.372;2023-02-20T06:26:12;87125.78;;;4.17;56.59
11678;BME280;5895;41.950;24.372;2023-02-20T06:28:39;87121.44;;;4.18;56.12
11678;BME280;5895;41.950;24.372;2023-02-20T06:31:07;87126.03;;;4.22;55.28
11678;BME280;5895;41.950;24.372;2023-02-20T06:33:34;87114.78;;;4.23;55.30
11678;BME280;5895;41.950;24.372;2023-02-20T06:36:02;87115.22;;;4.27;55.50
11678;BME280;5895;41.950;24.372;2023-02-20T06:38:30;87124.31;;;4.30;54.90
11678;BME280;5895;41.950;24.372;2023-02-20T06:40:58;87122.00;;;4.35;55.28
11678;BME280;5895;41.950;24.372;2023-02-20T06:43:25;87116.13;;;4.41;54.28
11678;BME280;5895;41.950;24.372;2023-02-20T06:45:54;87105.72;;;4.49;54.12
11678;BME280;5895;41.950;24.372;2023-02-20T06:48:21;87121.84;;;4.64;53.96
11678;BME280;5895;41.950;24.372;2023-02-20T06:50:48;87126.38;;;4.84;53.06
11678;BME280;5895;41.950;24.372;2023-02-20T06:53:19;87123.50;;;5.00;52.83
11678;BME280;5895;41.950;24.372;2023-02-20T06:55:46;87106.81;;;5.17;52.19
11678;BME280;5895;41.950;24.372;2023-02-20T06:58:15;87113.59;;;5.31;51.88
11678;BME280;5895;41.950;24.372;2023-02-20T07:00:42;87112.50;;;5.47;51.08
11678;BME280;5895;41.950;24.372;2023-02-20T07:03:09;87127.84;;;5.62;50.89
11678;BME280;5895;41.950;24.372;2023-02-20T07:05:36;87117.22;;;5.78;50.95
11678;BME280;5895;41.950;24.372;2023-02-20T07:08:04;87119.88;;;5.92;50.47
11678;BME280;5895;41.950;24.372;2023-02-20T07:10:31;87115.94;;;6.02;49.91
11678;BME280;5895;41.950;24.372;2023-02-20T07:12:58;87112.41;;;6.17;49.95
11678;BME280;5895;41.950;24.372;2023-02-20T07:15:29;87109.28;;;6.34;50.25
11678;BME280;5895;41.950;24.372;2023-02-20T07:17:56;87109.31;;;6.48;50.59
11678;BME280;5895;41.950;24.372;2023-02-20T07:20:23;87106.53;;;6.56;50.27
11678;BME280;5895;41.950;24.372;2023-02-20T07:22:51;87106.16;;;6.66;50.48
11678;BME280;5895;41.950;24.372;2023-02-20T07:25:18;87109.34;;;6.74;50.79
11678;BME280;5895;41.950;24.372;2023-02-20T07:27:45;87102.19;;;6.89;50.23
11678;BME280;5895;41.950;24.372;2023-02-20T07:30:13;87090.31;;;7.02;50.44
11678;BME280;5895;41.950;24.372;2023-02-20T07:32:42;87102.38;;;7.14;51.21
11678;BME280;5895;41.950;24.372;2023-02-20T07:35:09;87095.22;;;7.23;50.92
11678;BME280;5895;41.950;24.372;2023-02-20T07:37:36;87096.78;;;7.37;50.76
11678;BME280;5895;41.950;24.372;2023-02-20T07:40:04;87093.03;;;7.47;50.70
11678;BME280;5895;41.950;24.372;2023-02-20T07:42:31;87092.56;;;7.63;49.81
11678;BME280;5895;41.950;24.372;2023-02-20T07:44:58;87092.94;;;7.73;49.30
11678;BME280;5895;41.950;24.372;2023-02-20T08:03:49;87106.97;;;8.48;46.07
11678;BME280;5895;41.950;24.372;2023-02-20T08:06:17;87115.66;;;8.61;46.35
11678;BME280;5895;41.950;24.372;2023-02-20T08:08:47;87125.91;;;8.74;45.80
11678;BME280;5895;41.950;24.372;2023-02-20T08:11:15;87129.63;;;8.85;46.89
11678;BME280;5895;41.950;24.372;2023-02-20T08:13:43;87116.22;;;8.94;46.53
11678;BME280;5895;41.950;24.372;2023-02-20T08:16:10;87130.50;;;9.04;45.13
11678;BME280;5895;41.950;24.372;2023-02-20T08:18:37;87129.66;;;9.10;45.70
11678;BME280;5895;41.950;24.372;2023-02-20T08:21:06;87123.59;;;9.22;45.56
11678;BME280;5895;41.950;24.372;2023-02-20T08:46:39;87092.28;;;10.29;40.90
11678;BME280;5895;41.950;24.372;2023-02-20T08:49:10;87082.91;;;10.28;42.15
11678;BME280;5895;41.950;24.372;2023-02-20T08:51:38;87096.22;;;10.31;42.16
11678;BME280;5895;41.950;24.372;2023-02-20T08:54:05;87084.50;;;10.29;41.75
11678;BME280;5895;41.950;24.372;2023-02-20T08:56:32;87083.75;;;10.40;42.26
11678;BME280;5895;41.950;24.372;2023-02-20T08:59:00;87083.91;;;10.45;41.71
11678;BME280;5895;41.950;24.372;2023-02-20T09:01:27;87085.69;;;10.45;41.33
11678;BME280;5895;41.950;24.372;2023-02-20T09:03:55;87098.72;;;10.56;40.77
11678;BME280;5895;41.950;24.372;2023-02-20T09:06:23;87091.31;;;10.72;41.85
11678;BME280;5895;41.950;24.372;2023-02-20T09:08:51;87109.00;;;10.93;41.41
11678;BME280;5895;41.950;24.372;2023-02-20T09:11:18;87103.53;;;11.13;41.95
11678;BME280;5895;41.950;24.372;2023-02-20T09:58:19;87096.88;;;12.86;33.14
11678;BME280;5895;41.950;24.372;2023-02-20T10:00:47;87091.97;;;12.90;37.83
11678;BME280;5895;41.950;24.372;2023-02-20T10:03:21;87098.63;;;12.97;35.20
11678;BME280;5895;41.950;24.372;2023-02-20T10:05:51;87102.31;;;13.02;37.43
11678;BME280;5895;41.950;24.372;2023-02-20T10:08:21;87086.00;;;13.06;37.99
11678;BME280;5895;41.950;24.372;2023-02-20T10:10:51;87097.38;;;13.29;37.80
11678;BME280;5895;41.950;24.372;2023-02-20T10:13:39;87107.09;;;13.33;32.94
11678;BME280;5895;41.950;24.372;2023-02-20T10:16:18;87110.75;;;13.49;34.55
11678;BME280;5895;41.950;24.372;2023-02-20T10:18:53;87103.63;;;13.44;32.82
11678;BME280;5895;41.950;24.372;2023-02-20T10:21:35;87107.09;;;13.50;31.46
11678;BME280;5895;41.950;24.372;2023-02-20T10:24:20;87118.34;;;13.67;32.47
11678;BME280;5895;41.950;24.372;2023-02-20T10:26:53;87113.13;;;13.67;34.70
11678;BME280;5895;41.950;24.372;2023-02-20T10:29:24;87128.75;;;13.67;34.91
11678;BME280;5895;41.950;24.372;2023-02-20T10:31:57;87120.06;;;13.79;37.25
11678;BME280;5895;41.950;24.372;2023-02-20T10:34:30;87121.81;;;13.90;34.86
11678;BME280;5895;41.950;24.372;2023-02-20T10:37:02;87119.91;;;14.02;35.66
11678;BME280;5895;41.950;24.372;2023-02-20T10:39:33;87122.66;;;14.12;36.57
11678;BME280;5895;41.950;24.372;2023-02-20T10:42:09;87117.13;;;14.25;33.46
11678;BME280;5895;41.950;24.372;2023-02-20T10:44:46;87122.47;;;14.36;34.44
11678;BME280;5895;41.950;24.372;2023-02-20T10:47:19;87117.97;;;14.48;35.53
11678;BME280;5895;41.950;24.372;2023-02-20T10:49:54;87117.97;;;14.48;33.83
11678;BME280;5895;41.950;24.372;2023-02-20T10:52:26;87119.44;;;14.61;35.34
11678;BME280;5895;41.950;24.372;2023-02-20T10:55:00;87108.28;;;14.65;34.86
11678;BME280;5895;41.950;24.372;2023-02-20T10:57:32;87105.94;;;14.47;34.53
11678;BME280;5895;41.950;24.372;2023-02-20T11:00:07;87101.44;;;14.42;33.73
11678;BME280;5895;41.950;24.372;2023-02-20T11:02:38;87108.31;;;14.48;34.60
11678;BME280;5895;41.950;24.372;2023-02-20T11:17:49;87109.03;;;15.37;32.61
11678;BME280;5895;41.950;24.372;2023-02-20T11:20:41;87098.06;;;15.34;28.59
11678;BME280;5895;41.950;24.372;2023-02-20T11:23:34;87092.66;;;15.19;29.46
11678;BME280;5895;41.950;24.372;2023-02-20T11:29:02;87093.75;;;15.23;32.31
11678;BME280;5895;41.950;24.372;2023-02-20T11:31:31;87088.44;;;15.13;36.62
11678;BME280;5895;41.950;24.372;2023-02-20T11:34:03;87084.28;;;15.17;34.83
11678;BME280;5895;41.950;24.372;2023-02-20T11:36:35;87085.81;;;15.13;35.18
11678;BME280;5895;41.950;24.372;2023-02-20T11:39:16;87086.44;;;15.25;31.94
11678;BME280;5895;41.950;24.372;2023-02-20T11:41:45;87089.81;;;15.48;37.26
11678;BME280;5895;41.950;24.372;2023-02-20T11:44:24;87099.88;;;15.61;31.42
11678;BME280;5895;41.950;24.372;2023-02-20T11:47:10;87097.75;;;15.58;30.60
11678;BME280;5895;41.950;24.372;2023-02-20T11:49:44;87104.50;;;15.54;35.72
11678;BME280;5895;41.950;24.372;2023-02-20T11:52:15;87101.06;;;15.21;33.50
11678;BME280;5895;41.950;24.372;2023-02-20T11:54:43;87106.88;;;15.28;37.05
11678;BME280;5895;41.950;24.372;2023-02-20T11:57:22;87107.75;;;15.12;31.81
11678;BME280;5895;41.950;24.372;2023-02-20T12:00:08;87095.06;;;15.21;30.37
11678;BME280;5895;41.950;24.372;2023-02-20T12:02:47;87095.84;;;15.21;31.95
11678;BME280;5895;41.950;24.372;2023-02-20T12:05:18;87099.88;;;15.34;35.18
11678;BME280;5895;41.950;24.372;2023-02-20T12:07:55;87103.19;;;15.24;30.53
11678;BME280;5895;41.950;24.372;2023-02-20T12:13:12;87096.91;;;15.25;34.71
11678;BME280;5895;41.950;24.372;2023-02-20T12:15:40;87103.75;;;15.26;37.05
11678;BME280;5895;41.950;24.372;2023-02-20T12:18:35;87111.38;;;15.33;31.01
11678;BME280;5895;41.950;24.372;2023-02-20T12:21:17;87105.41;;;15.38;31.78
11678;BME280;5895;41.950;24.372;2023-02-20T12:24:01;87119.06;;;15.45;31.26
11678;BME280;5895;41.950;24.372;2023-02-20T12:26:51;87113.28;;;15.43;29.79
11678;BME280;5895;41.950;24.372;2023-02-20T12:29:40;87112.34;;;15.54;30.51
11678;BME280;5895;41.950;24.372;2023-02-20T12:32:18;87111.44;;;15.65;32.02
11678;BME280;5895;41.950;24.372;2023-02-20T12:37:52;87117.44;;;15.39;31.95
11678;BME280;5895;41.950;24.372;2023-02-20T12:40:45;87122.56;;;15.28;30.25
11678;BME280;5895;41.950;24.372;2023-02-20T12:43:26;87117.56;;;15.49;31.48
11678;BME280;5895;41.950;24.372;2023-02-20T12:46:06;87125.66;;;15.74;31.47
11678;BME280;5895;41.950;24.372;2023-02-20T12:48:41;87122.56;;;15.82;32.69
11678;BME280;5895;41.950;24.372;2023-02-20T12:51:17;87115.84;;;15.92;32.36
11678;BME280;5895;41.950;24.372;2023-02-20T12:54:04;87124.66;;;15.80;30.49
11678;BME280;5895;41.950;24.372;2023-02-20T12:56:43;87116.91;;;15.91;31.39
11678;BME280;5895;41.950;24.372;2023-02-20T12:59:23;87127.19;;;15.70;28.00
11678;BME280;5895;41.950;24.372;2023-02-20T13:01:53;87123.66;;;15.59;36.81
11678;BME280;5895;41.950;24.372;2023-02-20T13:04:24;87111.06;;;15.56;33.90
11678;BME280;5895;41.950;24.372;2023-02-20T13:06:59;87109.09;;;15.42;34.01
11678;BME280;5895;41.950;24.372;2023-02-20T13:09:33;87103.72;;;15.53;33.65
11678;BME280;5895;41.950;24.372;2023-02-20T13:12:04;87113.06;;;15.71;33.00
11678;BME280;5895;41.950;24.372;2023-02-20T13:14:54;87108.44;;;15.78;28.39
11678;BME280;5895;41.950;24.372;2023-02-20T13:17:32;87109.38;;;15.67;30.44
11678;BME280;5895;41.950;24.372;2023-02-20T13:20:09;87092.72;;;15.51;31.04
11678;BME280;5895;41.950;24.372;2023-02-20T13:22:37;87103.28;;;15.61;36.11
11678;BME280;5895;41.950;24.372;2023-02-20T13:25:43;87107.34;;;15.74;29.11
11678;BME280;5895;41.950;24.372;2023-02-20T13:28:28;87115.84;;;15.92;30.50
11678;BME280;5895;41.950;24.372;2023-02-20T13:31:07;87115.16;;;16.01;30.81
11678;BME280;5895;41.950;24.372;2023-02-20T13:33:35;87126.50;;;16.12;36.08
11678;BME280;5895;41.950;24.372;2023-02-20T13:36:04;87129.72;;;16.24;35.53
11678;BME280;5895;41.950;24.372;2023-02-20T13:38:32;87135.66;;;16.14;35.71
11678;BME280;5895;41.950;24.372;2023-02-20T13:41:06;87140.50;;;15.69;30.78
11678;BME280;5895;41.950;24.372;2023-02-20T13:43:34;87129.22;;;15.41;35.52
11678;BME280;5895;41.950;24.372;2023-02-20T13:46:12;87135.72;;;15.60;30.17
11678;BME280;5895;41.950;24.372;2023-02-20T13:48:45;87132.75;;;15.79;35.86
11678;BME280;5895;41.950;24.372;2023-02-20T13:51:30;87130.50;;;15.93;29.61
11678;BME280;5895;41.950;24.372;2023-02-20T13:54:09;87126.41;;;16.02;32.79
11678;BME280;5895;41.950;24.372;2023-02-20T13:56:52;87130.16;;;16.11;29.34
11678;BME280;5895;41.950;24.372;2023-02-20T13:59:24;87124.47;;;16.24;36.13
11678;BME280;5895;41.950;24.372;2023-02-20T14:02:02;87141.81;;;15.98;28.94
11678;BME280;5895;41.950;24.372;2023-02-20T14:04:31;87136.41;;;15.78;34.15
11678;BME280;5895;41.950;24.372;2023-02-20T14:06:59;87144.91;;;15.63;35.98
11678;BME280;5895;41.950;24.372;2023-02-20T14:09:27;87150.72;;;15.70;35.49
11678;BME280;5895;41.950;24.372;2023-02-20T14:12:05;87152.84;;;15.73;30.31
11678;BME280;5895;41.950;24.372;2023-02-20T14:14:36;87147.88;;;15.72;33.35
11678;BME280;5895;41.950;24.372;2023-02-20T14:17:07;87142.50;;;15.61;34.29
11678;BME280;5895;41.950;24.372;2023-02-20T14:19:40;87164.06;;;15.69;32.16
11678;BME280;5895;41.950;24.372;2023-02-20T14:22:24;87157.97;;;15.63;26.22
11678;BME280;5895;41.950;24.372;2023-02-20T14:28:03;87157.63;;;15.54;28.91
11678;BME280;5895;41.950;24.372;2023-02-20T14:30:31;87149.91;;;15.43;35.91
11678;BME280;5895;41.950;24.372;2023-02-20T14:32:58;87145.69;;;15.42;35.58
11678;BME280;5895;41.950;24.372;2023-02-20T14:35:52;87148.47;;;15.30;27.54
11678;BME280;5895;41.950;24.372;2023-02-20T14:38:32;87151.22;;;15.18;30.86
11678;BME280;5895;41.950;24.372;2023-02-20T14:41:10;87149.09;;;15.15;30.92
11678;BME280;5895;41.950;24.372;2023-02-20T14:43:39;87143.88;;;15.15;35.46
11678;BME280;5895;41.950;24.372;2023-02-20T14:46:17;87138.53;;;15.05;30.19
11678;BME280;5895;41.950;24.372;2023-02-20T14:48:46;87122.72;;;14.95;36.56
11678;BME280;5895;41.950;24.372;2023-02-20T14:51:16;87129.34;;;14.80;35.68
11678;BME280;5895;41.950;24.372;2023-02-20T14:53:44;87130.25;;;14.69;36.26
11678;BME280;5895;41.950;24.372;2023-02-20T14:56:22;87133.28;;;14.61;36.37
11678;BME280;5895;41.950;24.372;2023-02-20T14:58:51;87145.16;;;14.52;35.33
11678;BME280;5895;41.950;24.372;2023-02-20T15:01:37;87159.69;;;14.26;30.75
11678;BME280;5895;41.950;24.372;2023-02-20T15:04:11;87161.66;;;14.02;34.63
11678;BME280;5895;41.950;24.372;2023-02-20T15:06:40;87169.97;;;13.99;36.25
11678;BME280;5895;41.950;24.372;2023-02-20T15:09:09;87168.13;;;13.99;36.58
11678;BME280;5895;41.950;24.372;2023-02-20T15:11:45;87178.41;;;14.06;32.90
11678;BME280;5895;41.950;24.372;2023-02-20T15:14:19;87178.75;;;14.10;31.68
11678;BME280;5895;41.950;24.372;2023-02-20T15:16:47;87191.44;;;13.89;37.17
11678;BME280;5895;41.950;24.372;2023-02-20T15:19:31;87189.47;;;13.80;31.92
11678;BME280;5895;41.950;24.372;2023-02-20T15:21:59;87192.16;;;13.85;37.18
11678;BME280;5895;41.950;24.372;2023-02-20T15:24:33;87185.19;;;13.73;34.92
11678;BME280;5895;41.950;24.372;2023-02-20T15:27:13;87183.75;;;13.66;32.37
11678;BME280;5895;41.950;24.372;2023-02-20T15:29:43;87176.63;;;13.61;35.19
11678;BME280;5895;41.950;24.372;2023-02-20T15:32:19;87175.91;;;13.49;33.71